createdAt,value
2022-11-06T00:00:57.793Z,0
2022-11-06T00:01:57.816Z,0
2022-11-06T00:02:57.849Z,0
2022-11-06T00:03:57.769Z,0
2022-11-06T00:04:57.774Z,0
2022-11-06T00:05:57.771Z,0
2022-11-06T00:06:57.780Z,0
2022-11-06T00:07:57.776Z,0
2022-11-06T00:08:57.780Z,0
2022-11-06T00:09:57.781Z,0
2022-11-06T00:10:57.783Z,0
2022-11-06T00:11:57.779Z,0
2022-11-06T00:12:57.780Z,0
2022-11-06T00:13:57.787Z,0
2022-11-06T00:14:57.788Z,0
2022-11-06T00:15:57.788Z,0
2022-11-06T00:16:57.808Z,0
2022-11-06T00:17:57.785Z,0
2022-11-06T00:18:57.786Z,0
2022-11-06T00:19:57.792Z,0
2022-11-06T00:20:57.798Z,0
2022-11-06T00:21:57.795Z,0
2022-11-06T00:22:57.784Z,0
2022-11-06T00:23:57.800Z,0
2022-11-06T00:24:57.793Z,0
2022-11-06T00:25:57.800Z,0
2022-11-06T00:26:57.804Z,0
2022-11-06T00:27:57.793Z,0
2022-11-06T00:28:57.803Z,0
2022-11-06T00:29:57.801Z,0
2022-11-06T00:30:57.807Z,0
2022-11-06T00:31:57.800Z,0
2022-11-06T00:32:57.815Z,0
2022-11-06T00:33:57.807Z,0
2022-11-06T00:34:57.806Z,0
2022-11-06T00:35:57.794Z,0
2022-11-06T00:36:57.803Z,0
2022-11-06T00:37:57.804Z,0
2022-11-06T00:38:57.810Z,0
2022-11-06T00:39:57.806Z,0
2022-11-06T00:40:57.811Z,0
2022-11-06T00:41:57.806Z,0
2022-11-06T00:42:57.805Z,0
2022-11-06T00:43:57.811Z,0
2022-11-06T00:44:57.816Z,0
2022-11-06T00:45:57.817Z,0
2022-11-06T00:46:57.809Z,0
2022-11-06T00:47:57.823Z,0
2022-11-06T00:48:57.836Z,0
2022-11-06T00:49:57.818Z,0
2022-11-06T00:50:57.818Z,0
2022-11-06T00:51:57.814Z,0
2022-11-06T00:52:57.822Z,0
2022-11-06T00:53:57.822Z,0
2022-11-06T00:54:57.824Z,0
2022-11-06T00:55:57.817Z,0
2022-11-06T00:56:57.820Z,0
2022-11-06T00:57:57.815Z,0
2022-11-06T00:58:57.820Z,0
2022-11-06T00:59:57.825Z,0
2022-11-06T01:00:57.827Z,0
2022-11-06T01:01:57.922Z,0
2022-11-06T01:02:57.930Z,0
2022-11-06T01:03:57.832Z,0
2022-11-06T01:04:57.865Z,0
2022-11-06T01:05:57.829Z,0
2022-11-06T01:06:57.831Z,0
2022-11-06T01:07:57.832Z,0
2022-11-06T01:08:57.836Z,0
2022-11-06T01:09:57.831Z,0
2022-11-06T01:10:57.833Z,0
2022-11-06T01:12:14.333Z,0
2022-11-06T01:12:57.833Z,0
2022-11-06T01:13:57.836Z,0
2022-11-06T01:14:57.833Z,0
2022-11-06T01:15:57.837Z,0
2022-11-06T01:16:57.834Z,0
2022-11-06T01:17:57.851Z,0
2022-11-06T01:18:57.841Z,0
2022-11-06T01:19:57.833Z,0
2022-11-06T01:20:57.862Z,0
2022-11-06T01:21:57.844Z,0
2022-11-06T01:22:57.840Z,0
2022-11-06T01:23:57.841Z,0
2022-11-06T01:24:57.935Z,0
2022-11-06T01:25:57.845Z,0
2022-11-06T01:27:24.692Z,0
2022-11-06T01:27:57.843Z,0
2022-11-06T01:28:57.844Z,0
2022-11-06T01:29:57.848Z,0
2022-11-06T01:30:57.851Z,0
2022-11-06T01:31:57.847Z,0
2022-11-06T01:32:57.846Z,0
2022-11-06T01:33:57.848Z,0
2022-11-06T01:34:57.841Z,0
2022-11-06T01:35:57.841Z,0
2022-11-06T01:36:57.867Z,0
2022-11-06T01:37:57.846Z,0
2022-11-06T01:38:57.849Z,0
2022-11-06T01:39:57.844Z,0
2022-11-06T01:40:57.852Z,0
2022-11-06T01:41:57.856Z,0
2022-11-06T01:42:57.848Z,0
2022-11-06T01:43:57.846Z,0
2022-11-06T01:44:57.853Z,0
2022-11-06T01:45:57.850Z,0
2022-11-06T01:46:57.855Z,0
2022-11-06T01:47:57.849Z,0
2022-11-06T01:48:57.858Z,0
2022-11-06T01:49:57.844Z,0
2022-11-06T01:50:57.849Z,0
2022-11-06T01:51:57.858Z,0
2022-11-06T01:52:57.870Z,0
2022-11-06T01:53:57.848Z,0
2022-11-06T01:54:57.854Z,0
2022-11-06T01:55:57.845Z,0
2022-11-06T01:56:57.854Z,0
2022-11-06T01:57:57.850Z,0
2022-11-06T01:58:57.864Z,0
2022-11-06T01:59:57.860Z,0
2022-11-06T02:00:57.852Z,0
2022-11-06T02:01:57.958Z,0
2022-11-06T02:02:57.968Z,0
2022-11-06T02:03:57.858Z,0
2022-11-06T02:04:57.863Z,0
2022-11-06T02:05:57.859Z,0
2022-11-06T02:06:57.861Z,0
2022-11-06T02:07:57.887Z,0
2022-11-06T02:08:57.878Z,0
2022-11-06T02:09:57.861Z,0
2022-11-06T02:10:57.858Z,0
2022-11-06T02:11:57.857Z,0
2022-11-06T02:12:57.861Z,0
2022-11-06T02:13:57.862Z,0
2022-11-06T02:14:57.867Z,0
2022-11-06T02:15:57.869Z,0
2022-11-06T02:16:57.866Z,0
2022-11-06T02:17:57.869Z,0
2022-11-06T02:18:57.873Z,0
2022-11-06T02:19:57.882Z,0
2022-11-06T02:20:57.872Z,0
2022-11-06T02:21:57.876Z,0
2022-11-06T02:22:57.891Z,0
2022-11-06T02:23:57.876Z,0
2022-11-06T02:24:57.899Z,0
2022-11-06T02:25:57.879Z,0
2022-11-06T02:26:57.887Z,0
2022-11-06T02:27:57.875Z,0
2022-11-06T02:28:57.883Z,0
2022-11-06T02:29:57.884Z,0
2022-11-06T02:30:57.885Z,0
2022-11-06T02:31:57.877Z,0
2022-11-06T02:32:57.891Z,0
2022-11-06T02:33:57.878Z,0
2022-11-06T02:34:57.884Z,0
2022-11-06T02:35:57.890Z,0
2022-11-06T02:36:57.885Z,0
2022-11-06T02:37:57.885Z,0
2022-11-06T02:38:57.895Z,0
2022-11-06T02:39:57.888Z,0
2022-11-06T02:40:57.912Z,0
2022-11-06T02:41:57.911Z,0
2022-11-06T02:42:57.897Z,0
2022-11-06T02:43:57.890Z,0
2022-11-06T02:44:57.921Z,0
2022-11-06T02:45:57.891Z,0
2022-11-06T02:46:57.888Z,0
2022-11-06T02:47:57.880Z,0
2022-11-06T02:48:57.878Z,0
2022-11-06T02:49:57.883Z,0
2022-11-06T02:50:57.887Z,0
2022-11-06T02:51:57.889Z,0
2022-11-06T02:52:57.879Z,0
2022-11-06T02:53:57.881Z,0
2022-11-06T02:54:57.879Z,0
2022-11-06T02:55:57.877Z,0
2022-11-06T02:56:57.900Z,0
2022-11-06T02:57:57.883Z,0
2022-11-06T02:58:57.879Z,0
2022-11-06T02:59:57.876Z,0
2022-11-06T03:00:57.884Z,0
2022-11-06T03:01:58.029Z,0
2022-11-06T03:02:58.049Z,0
2022-11-06T03:03:57.881Z,0
2022-11-06T03:04:57.884Z,0
2022-11-06T03:05:57.882Z,0
2022-11-06T03:06:57.900Z,0
2022-11-06T03:07:57.883Z,0
2022-11-06T03:08:57.892Z,0
2022-11-06T03:09:57.883Z,0
2022-11-06T03:10:57.883Z,0
2022-11-06T03:11:57.890Z,0
2022-11-06T03:12:57.906Z,0
2022-11-06T03:13:57.883Z,0
2022-11-06T03:14:57.886Z,0
2022-11-06T03:15:57.876Z,0
2022-11-06T03:16:57.886Z,0
2022-11-06T03:17:57.889Z,0
2022-11-06T03:18:57.885Z,0
2022-11-06T03:19:57.891Z,0
2022-11-06T03:20:57.887Z,0
2022-11-06T03:21:57.890Z,0
2022-11-06T03:22:57.886Z,0
2022-11-06T03:23:57.887Z,0
2022-11-06T03:24:57.885Z,0
2022-11-06T03:25:57.886Z,0
2022-11-06T03:26:57.886Z,0
2022-11-06T03:27:57.887Z,0
2022-11-06T03:28:57.898Z,0
2022-11-06T03:29:57.887Z,0
2022-11-06T03:30:57.886Z,0
2022-11-06T03:31:57.887Z,0
2022-11-06T03:32:57.883Z,0
2022-11-06T03:33:57.880Z,0
2022-11-06T03:34:57.885Z,0
2022-11-06T03:35:57.888Z,0
2022-11-06T03:36:57.891Z,0
2022-11-06T03:37:57.898Z,0
2022-11-06T03:38:57.913Z,0
2022-11-06T03:39:57.887Z,0
2022-11-06T03:40:57.895Z,0
2022-11-06T03:41:57.894Z,0
2022-11-06T03:42:57.898Z,0
2022-11-06T03:43:57.894Z,0
2022-11-06T03:44:57.923Z,0
2022-11-06T03:45:57.901Z,0
2022-11-06T03:46:57.902Z,0
2022-11-06T03:47:57.905Z,0
2022-11-06T03:48:57.898Z,0
2022-11-06T03:49:57.910Z,0
2022-11-06T03:50:57.904Z,0
2022-11-06T03:51:57.902Z,0
2022-11-06T03:52:57.908Z,0
2022-11-06T03:53:57.903Z,0
2022-11-06T03:54:57.911Z,0
2022-11-06T03:55:57.903Z,0
2022-11-06T03:56:57.919Z,0
2022-11-06T03:57:57.921Z,0
2022-11-06T03:58:57.964Z,0
2022-11-06T03:59:57.916Z,0
2022-11-06T04:00:57.935Z,0
2022-11-06T04:01:58.025Z,0
2022-11-06T04:02:57.999Z,0
2022-11-06T04:03:57.907Z,0
2022-11-06T04:04:57.922Z,0
2022-11-06T04:05:57.919Z,0
2022-11-06T04:06:57.920Z,0
2022-11-06T04:07:57.918Z,0
2022-11-06T04:08:57.917Z,0
2022-11-06T04:09:57.922Z,0
2022-11-06T04:10:57.923Z,0
2022-11-06T04:11:57.922Z,0
2022-11-06T04:12:57.925Z,0
2022-11-06T04:13:57.919Z,0
2022-11-06T04:14:57.926Z,0
2022-11-06T04:15:57.922Z,0
2022-11-06T04:16:58.003Z,0
2022-11-06T04:17:57.923Z,0
2022-11-06T04:18:57.930Z,0
2022-11-06T04:19:57.927Z,0
2022-11-06T04:20:57.930Z,0
2022-11-06T04:21:57.924Z,0
2022-11-06T04:22:57.928Z,0
2022-11-06T04:23:57.936Z,0
2022-11-06T04:24:57.931Z,0
2022-11-06T04:25:57.932Z,0
2022-11-06T04:26:57.933Z,0
2022-11-06T04:27:57.941Z,0
2022-11-06T04:28:57.936Z,0
2022-11-06T04:29:57.937Z,0
2022-11-06T04:30:57.940Z,0
2022-11-06T04:31:57.942Z,0
2022-11-06T04:33:00.220Z,0
2022-11-06T04:33:57.942Z,0
2022-11-06T04:34:57.942Z,0
2022-11-06T04:35:57.934Z,0
2022-11-06T04:36:57.939Z,0
2022-11-06T04:37:57.937Z,0
2022-11-06T04:38:57.965Z,0
2022-11-06T04:39:57.945Z,0
2022-11-06T04:40:57.943Z,0
2022-11-06T04:41:57.937Z,0
2022-11-06T04:42:57.948Z,0
2022-11-06T04:43:57.945Z,0
2022-11-06T04:44:57.958Z,0
2022-11-06T04:45:57.955Z,0
2022-11-06T04:46:57.947Z,0
2022-11-06T04:47:57.948Z,0
2022-11-06T04:48:57.972Z,0
2022-11-06T04:49:57.949Z,0
2022-11-06T04:50:57.950Z,0
2022-11-06T04:51:57.950Z,0
2022-11-06T04:52:57.945Z,0
2022-11-06T04:53:57.958Z,0
2022-11-06T04:54:57.951Z,0
2022-11-06T04:55:57.958Z,0
2022-11-06T04:56:57.958Z,0
2022-11-06T04:57:57.955Z,0
2022-11-06T04:58:57.965Z,0
2022-11-06T04:59:57.959Z,0
2022-11-06T05:00:57.979Z,0
2022-11-06T05:01:58.020Z,0
2022-11-06T05:02:57.957Z,0
2022-11-06T05:03:57.965Z,0
2022-11-06T05:04:57.983Z,0
2022-11-06T05:05:57.966Z,0
2022-11-06T05:06:57.965Z,0
2022-11-06T05:07:57.964Z,0
2022-11-06T05:08:57.968Z,0
2022-11-06T05:09:57.970Z,0
2022-11-06T05:10:57.967Z,0
2022-11-06T05:11:57.968Z,0
2022-11-06T05:12:57.972Z,0
2022-11-06T05:13:57.963Z,0
2022-11-06T05:14:57.966Z,0
2022-11-06T05:15:57.975Z,0
2022-11-06T05:16:57.992Z,0
2022-11-06T05:17:57.973Z,0
2022-11-06T05:18:57.981Z,0
2022-11-06T05:19:57.978Z,0
2022-11-06T05:20:57.997Z,0
2022-11-06T05:21:57.970Z,0
2022-11-06T05:22:57.978Z,0
2022-11-06T05:23:57.973Z,0
2022-11-06T05:24:57.971Z,0
2022-11-06T05:25:57.977Z,0
2022-11-06T05:26:59.493Z,0
2022-11-06T05:27:57.973Z,0
2022-11-06T05:28:57.979Z,0
2022-11-06T05:29:57.983Z,0
2022-11-06T05:30:57.979Z,0
2022-11-06T05:31:57.983Z,0
2022-11-06T05:32:57.978Z,0
2022-11-06T05:33:57.985Z,0
2022-11-06T05:34:57.983Z,0
2022-11-06T05:35:57.988Z,0
2022-11-06T05:36:58.001Z,0
2022-11-06T05:37:58.165Z,0
2022-11-06T05:38:57.985Z,0
2022-11-06T05:39:57.979Z,0
2022-11-06T05:40:57.978Z,0
2022-11-06T05:41:57.984Z,0
2022-11-06T05:42:57.990Z,0
2022-11-06T05:43:57.980Z,0
2022-11-06T05:44:57.988Z,0
2022-11-06T05:45:57.983Z,0
2022-11-06T05:46:57.990Z,0
2022-11-06T05:47:57.988Z,0
2022-11-06T05:48:57.989Z,0
2022-11-06T05:49:57.991Z,0
2022-11-06T05:50:57.988Z,0
2022-11-06T05:51:57.992Z,0
2022-11-06T05:52:58.117Z,0
2022-11-06T05:53:57.983Z,0
2022-11-06T05:54:57.987Z,0
2022-11-06T05:55:57.987Z,0
2022-11-06T05:56:57.981Z,0
2022-11-06T05:57:57.990Z,0
2022-11-06T05:58:58.002Z,0
2022-11-06T05:59:57.987Z,0
2022-11-06T06:00:57.994Z,0
2022-11-06T06:01:58.103Z,0
2022-11-06T06:02:58.002Z,0
2022-11-06T06:03:57.999Z,0
2022-11-06T06:04:57.981Z,0
2022-11-06T06:05:57.993Z,0
2022-11-06T06:06:57.986Z,0
2022-11-06T06:07:57.986Z,0
2022-11-06T06:08:58.023Z,0
2022-11-06T06:09:57.990Z,0
2022-11-06T06:10:57.993Z,0
2022-11-06T06:11:57.989Z,0
2022-11-06T06:12:57.992Z,0
2022-11-06T06:13:57.999Z,3.4000000000000004
2022-11-06T06:14:57.984Z,0
2022-11-06T06:15:57.993Z,0
2022-11-06T06:16:57.993Z,0
2022-11-06T06:17:58.022Z,0
2022-11-06T06:18:57.998Z,0
2022-11-06T06:19:57.985Z,0
2022-11-06T06:20:57.990Z,0
2022-11-06T06:21:57.994Z,0
2022-11-06T06:22:57.988Z,0
2022-11-06T06:23:57.988Z,0
2022-11-06T06:24:58.090Z,0
2022-11-06T06:25:57.993Z,0
2022-11-06T06:26:57.992Z,0
2022-11-06T06:27:57.983Z,0
2022-11-06T06:28:57.987Z,0
2022-11-06T06:29:57.997Z,0
2022-11-06T06:31:01.444Z,0
2022-11-06T06:31:57.991Z,0
2022-11-06T06:32:57.992Z,0
2022-11-06T06:33:57.994Z,0
2022-11-06T06:34:57.997Z,0
2022-11-06T06:35:57.996Z,0
2022-11-06T06:36:58.002Z,0
2022-11-06T06:37:58.004Z,0
2022-11-06T06:38:58.003Z,0
2022-11-06T06:39:58.004Z,0
2022-11-06T06:40:58.172Z,0
2022-11-06T06:41:57.999Z,0
2022-11-06T06:42:58.005Z,0
2022-11-06T06:43:57.996Z,0
2022-11-06T06:44:58.009Z,0
2022-11-06T06:45:58.008Z,0
2022-11-06T06:46:58.007Z,0
2022-11-06T06:47:58.011Z,0
2022-11-06T06:48:58.010Z,0
2022-11-06T06:49:58.009Z,0
2022-11-06T06:50:58.010Z,0
2022-11-06T06:51:58.009Z,0
2022-11-06T06:52:58.020Z,0
2022-11-06T06:53:58.004Z,0
2022-11-06T06:54:58.016Z,0
2022-11-06T06:55:58.018Z,0
2022-11-06T06:56:58.039Z,0
2022-11-06T06:57:58.025Z,0
2022-11-06T06:58:58.019Z,0
2022-11-06T06:59:58.028Z,0
2022-11-06T07:00:58.090Z,0
2022-11-06T07:01:58.099Z,0
2022-11-06T07:02:58.027Z,0
2022-11-06T07:04:02.895Z,0
2022-11-06T07:04:58.025Z,0
2022-11-06T07:05:58.025Z,0
2022-11-06T07:06:58.033Z,0
2022-11-06T07:07:58.036Z,0
2022-11-06T07:08:58.034Z,0
2022-11-06T07:09:58.029Z,0
2022-11-06T07:10:58.027Z,0
2022-11-06T07:11:58.036Z,0
2022-11-06T07:12:58.058Z,0
2022-11-06T07:13:58.035Z,0
2022-11-06T07:14:58.042Z,0
2022-11-06T07:15:58.031Z,0
2022-11-06T07:16:58.049Z,0
2022-11-06T07:17:58.040Z,0
2022-11-06T07:18:58.048Z,0
2022-11-06T07:19:58.054Z,0
2022-11-06T07:20:58.049Z,0
2022-11-06T07:21:58.055Z,0
2022-11-06T07:22:58.057Z,0
2022-11-06T07:23:58.060Z,0
2022-11-06T07:24:58.067Z,0
2022-11-06T07:25:58.057Z,0
2022-11-06T07:26:58.059Z,0
2022-11-06T07:28:02.497Z,0
2022-11-06T07:28:58.101Z,0
2022-11-06T07:29:58.064Z,0
2022-11-06T07:30:58.079Z,0
2022-11-06T07:31:58.068Z,0
2022-11-06T07:32:58.065Z,0
2022-11-06T07:33:58.067Z,0
2022-11-06T07:34:58.079Z,0
2022-11-06T07:35:58.074Z,0
2022-11-06T07:36:58.083Z,0
2022-11-06T07:37:58.077Z,0
2022-11-06T07:38:58.081Z,0
2022-11-06T07:39:58.089Z,0
2022-11-06T07:40:58.086Z,0
2022-11-06T07:41:58.095Z,0
2022-11-06T07:42:58.088Z,0
2022-11-06T07:43:58.091Z,0
2022-11-06T07:44:58.138Z,0
2022-11-06T07:45:58.090Z,0
2022-11-06T07:46:58.108Z,0
2022-11-06T07:47:59.264Z,0
2022-11-06T07:48:58.105Z,0
2022-11-06T07:49:58.098Z,0
2022-11-06T07:50:58.167Z,0
2022-11-06T07:51:58.099Z,0
2022-11-06T07:52:58.104Z,0
2022-11-06T07:53:58.105Z,0
2022-11-06T07:54:58.108Z,0
2022-11-06T07:55:58.109Z,0
2022-11-06T07:56:58.098Z,0
2022-11-06T07:57:58.115Z,0
2022-11-06T07:58:58.102Z,0
2022-11-06T07:59:58.109Z,0
2022-11-06T08:00:58.387Z,0
2022-11-06T08:01:58.211Z,0
2022-11-06T08:02:58.115Z,0
2022-11-06T08:03:58.106Z,0
2022-11-06T08:04:58.111Z,0
2022-11-06T08:05:58.117Z,0
2022-11-06T08:06:58.126Z,0
2022-11-06T08:07:58.122Z,0
2022-11-06T08:08:59.153Z,0
2022-11-06T08:09:58.128Z,0
2022-11-06T08:10:58.134Z,0
2022-11-06T08:11:58.119Z,0
2022-11-06T08:12:58.128Z,0
2022-11-06T08:13:58.124Z,0
2022-11-06T08:14:58.129Z,0
2022-11-06T08:15:58.153Z,0
2022-11-06T08:16:58.149Z,0
2022-11-06T08:17:58.147Z,0
2022-11-06T08:18:58.139Z,0
2022-11-06T08:19:58.131Z,0
2022-11-06T08:20:58.137Z,0
2022-11-06T08:21:58.138Z,0
2022-11-06T08:22:58.146Z,0
2022-11-06T08:23:58.143Z,0
2022-11-06T08:24:58.150Z,0
2022-11-06T08:25:58.153Z,0
2022-11-06T08:26:58.139Z,0
2022-11-06T08:27:58.145Z,0
2022-11-06T08:28:58.150Z,0
2022-11-06T08:29:58.148Z,0
2022-11-06T08:30:58.148Z,0
2022-11-06T08:31:58.150Z,0
2022-11-06T08:32:58.172Z,0
2022-11-06T08:33:58.159Z,0
2022-11-06T08:34:58.154Z,0
2022-11-06T08:35:58.155Z,0
2022-11-06T08:36:58.158Z,0
2022-11-06T08:37:58.158Z,0
2022-11-06T08:38:58.171Z,0
2022-11-06T08:39:58.169Z,0
2022-11-06T08:40:58.169Z,0
2022-11-06T08:41:58.168Z,0
2022-11-06T08:42:58.162Z,0
2022-11-06T08:43:58.179Z,0
2022-11-06T08:44:58.166Z,0
2022-11-06T08:45:58.166Z,0
2022-11-06T08:46:58.168Z,0
2022-11-06T08:47:58.169Z,0
2022-11-06T08:48:58.322Z,0
2022-11-06T08:49:58.177Z,0
2022-11-06T08:50:58.169Z,0
2022-11-06T08:51:58.174Z,0
2022-11-06T08:52:58.183Z,0
2022-11-06T08:53:58.251Z,0
2022-11-06T08:54:58.171Z,0
2022-11-06T08:55:58.188Z,0
2022-11-06T08:56:58.176Z,0
2022-11-06T08:57:58.179Z,0
2022-11-06T08:58:58.177Z,0
2022-11-06T08:59:58.171Z,0
2022-11-06T09:00:58.199Z,0
2022-11-06T09:01:58.341Z,0
2022-11-06T09:02:58.183Z,0
2022-11-06T09:03:58.192Z,0
2022-11-06T09:04:58.213Z,0
2022-11-06T09:05:58.185Z,0
2022-11-06T09:06:58.196Z,0
2022-11-06T09:07:58.191Z,0
2022-11-06T09:08:58.202Z,0
2022-11-06T09:09:58.191Z,0
2022-11-06T09:10:58.953Z,0
2022-11-06T09:11:58.196Z,0
2022-11-06T09:12:58.194Z,0
2022-11-06T09:13:58.200Z,0
2022-11-06T09:14:58.193Z,4.4
2022-11-06T09:15:58.199Z,1.6
2022-11-06T09:16:58.204Z,0
2022-11-06T09:17:58.204Z,0
2022-11-06T09:18:58.208Z,0
2022-11-06T09:19:58.197Z,2.1
2022-11-06T09:20:58.225Z,0
2022-11-06T09:21:58.203Z,0
2022-11-06T09:22:58.208Z,0
2022-11-06T09:23:58.198Z,0
2022-11-06T09:25:03.487Z,0
2022-11-06T09:25:58.206Z,0
2022-11-06T09:26:58.211Z,0
2022-11-06T09:27:59.560Z,0
2022-11-06T09:28:58.209Z,0
2022-11-06T09:29:58.218Z,0
2022-11-06T09:30:58.220Z,0
2022-11-06T09:31:58.209Z,0
2022-11-06T09:32:58.218Z,4.4
2022-11-06T09:33:58.209Z,0
2022-11-06T09:34:58.212Z,0
2022-11-06T09:35:58.218Z,0
2022-11-06T09:36:58.240Z,0
2022-11-06T09:37:58.216Z,0
2022-11-06T09:38:58.221Z,3.5
2022-11-06T09:40:01.838Z,0
2022-11-06T09:40:58.247Z,0
2022-11-06T09:41:58.227Z,0
2022-11-06T09:42:58.223Z,0
2022-11-06T09:44:04.954Z,0
2022-11-06T09:44:58.223Z,0
2022-11-06T09:45:58.238Z,0
2022-11-06T09:46:58.234Z,0
2022-11-06T09:47:58.231Z,4.7
2022-11-06T09:48:58.228Z,5.9
2022-11-06T09:49:58.239Z,6
2022-11-06T09:50:58.235Z,5
2022-11-06T09:51:58.244Z,3.1
2022-11-06T09:53:01.678Z,7.2
2022-11-06T09:53:58.246Z,4.2
2022-11-06T09:54:59.359Z,0
2022-11-06T09:55:58.243Z,6.1000000000000005
2022-11-06T09:56:58.251Z,5.6000000000000005
2022-11-06T09:57:58.253Z,8.700000000000001
2022-11-06T09:58:58.243Z,7.5
2022-11-06T09:59:58.249Z,6.7
2022-11-06T10:00:58.332Z,7.300000000000001
2022-11-06T10:01:58.398Z,8.4
2022-11-06T10:02:58.347Z,2
2022-11-06T10:03:58.270Z,5.7
2022-11-06T10:04:58.257Z,1.2000000000000002
2022-11-06T10:05:58.257Z,6.4
2022-11-06T10:06:58.260Z,11.3
2022-11-06T10:07:58.271Z,11.200000000000001
2022-11-06T10:08:58.286Z,7.7
2022-11-06T10:09:58.263Z,6.4
2022-11-06T10:10:58.279Z,3.9000000000000004
2022-11-06T10:11:58.260Z,5
2022-11-06T10:12:58.268Z,11
2022-11-06T10:13:58.264Z,4.2
2022-11-06T10:14:58.271Z,9.4
2022-11-06T10:15:58.267Z,11.100000000000001
2022-11-06T10:16:58.276Z,9
2022-11-06T10:17:58.273Z,1.6
2022-11-06T10:18:58.339Z,7.4
2022-11-06T10:19:58.282Z,4.2
2022-11-06T10:20:58.274Z,0
2022-11-06T10:21:58.276Z,0
2022-11-06T10:22:58.276Z,6.1000000000000005
2022-11-06T10:23:58.275Z,4.4
2022-11-06T10:24:58.297Z,11.200000000000001
2022-11-06T10:25:58.278Z,4.5
2022-11-06T10:26:58.296Z,10.4
2022-11-06T10:27:58.280Z,4.4
2022-11-06T10:28:58.283Z,10.600000000000001
2022-11-06T10:29:58.286Z,10.200000000000001
2022-11-06T10:30:58.281Z,8.3
2022-11-06T10:31:58.286Z,8.9
2022-11-06T10:32:58.288Z,10.8
2022-11-06T10:33:58.287Z,3.9000000000000004
2022-11-06T10:34:58.280Z,7
2022-11-06T10:35:58.285Z,9.600000000000001
2022-11-06T10:36:58.288Z,3
2022-11-06T10:37:58.287Z,2.3000000000000003
2022-11-06T10:38:58.291Z,3
2022-11-06T10:39:58.295Z,12.8
2022-11-06T10:40:58.310Z,10.100000000000001
2022-11-06T10:41:58.296Z,4.800000000000001
2022-11-06T10:42:58.292Z,6.4
2022-11-06T10:43:58.287Z,4.3
2022-11-06T10:44:58.295Z,6
2022-11-06T10:45:58.306Z,9.5
2022-11-06T10:46:58.299Z,7.5
2022-11-06T10:47:58.306Z,6.1000000000000005
2022-11-06T10:48:58.307Z,8
2022-11-06T10:49:58.312Z,0.6000000000000001
2022-11-06T10:50:58.301Z,4.1000000000000005
2022-11-06T10:51:58.309Z,9.700000000000001
2022-11-06T10:52:58.303Z,5.7
2022-11-06T10:53:58.300Z,10.9
2022-11-06T10:54:58.301Z,9.200000000000001
2022-11-06T10:55:58.301Z,7.9
2022-11-06T10:56:58.317Z,11.5
2022-11-06T10:57:58.310Z,7.4
2022-11-06T10:58:58.310Z,2
2022-11-06T10:59:58.300Z,6.6000000000000005
2022-11-06T11:00:58.355Z,6.5
2022-11-06T11:01:58.448Z,10.3
2022-11-06T11:02:58.303Z,9.5
2022-11-06T11:03:58.306Z,8.9
2022-11-06T11:04:58.670Z,7.9
2022-11-06T11:05:58.296Z,6.6000000000000005
2022-11-06T11:06:58.308Z,4.6000000000000005
2022-11-06T11:07:58.303Z,10
2022-11-06T11:08:58.319Z,9.200000000000001
2022-11-06T11:09:58.310Z,3.8000000000000003
2022-11-06T11:11:04.753Z,8.200000000000001
2022-11-06T11:11:58.320Z,3.1
2022-11-06T11:12:58.491Z,11.600000000000001
2022-11-06T11:13:58.318Z,8.9
2022-11-06T11:14:58.324Z,4.7
2022-11-06T11:15:58.308Z,13.3
2022-11-06T11:16:58.320Z,5.7
2022-11-06T11:17:58.337Z,7.800000000000001
2022-11-06T11:18:58.320Z,4.9
2022-11-06T11:19:58.316Z,7.2
2022-11-06T11:20:58.316Z,7.5
2022-11-06T11:21:58.314Z,9
2022-11-06T11:22:58.356Z,11.5
2022-11-06T11:23:58.315Z,1.2000000000000002
2022-11-06T11:24:58.314Z,7.2
2022-11-06T11:25:58.322Z,13.4
2022-11-06T11:26:58.321Z,11.200000000000001
2022-11-06T11:28:02.212Z,10.600000000000001
2022-11-06T11:28:58.341Z,3.6
2022-11-06T11:29:58.320Z,7.5
2022-11-06T11:30:58.315Z,15.5
2022-11-06T11:31:58.313Z,4.9
2022-11-06T11:32:58.325Z,9.200000000000001
2022-11-06T11:33:58.334Z,5.2
2022-11-06T11:34:58.315Z,7.2
2022-11-06T11:35:58.313Z,6.2
2022-11-06T11:36:58.322Z,6.6000000000000005
2022-11-06T11:37:58.318Z,9.3
2022-11-06T11:38:58.319Z,6.1000000000000005
2022-11-06T11:39:58.319Z,8.200000000000001
2022-11-06T11:40:58.319Z,7.2
2022-11-06T11:41:58.318Z,8.200000000000001
2022-11-06T11:42:58.319Z,4.6000000000000005
2022-11-06T11:43:58.328Z,10.9
2022-11-06T11:44:58.345Z,5.5
2022-11-06T11:45:58.323Z,0.6000000000000001
2022-11-06T11:46:58.322Z,4
2022-11-06T11:47:58.324Z,5.4
2022-11-06T11:48:58.341Z,5.9
2022-11-06T11:49:58.344Z,6.1000000000000005
2022-11-06T11:50:58.335Z,12.4
2022-11-06T11:51:58.329Z,8.700000000000001
2022-11-06T11:52:58.334Z,12.700000000000001
2022-11-06T11:53:58.340Z,11.600000000000001
2022-11-06T11:54:58.332Z,8.1
2022-11-06T11:55:58.337Z,13.600000000000001
2022-11-06T11:57:04.461Z,11.9
2022-11-06T11:57:58.344Z,8.9
2022-11-06T11:58:58.342Z,9.600000000000001
2022-11-06T11:59:58.344Z,7.2
2022-11-06T12:00:58.365Z,9.5
2022-11-06T12:01:58.417Z,4.7
2022-11-06T12:02:58.421Z,10.700000000000001
2022-11-06T12:03:58.345Z,6.800000000000001
2022-11-06T12:04:58.351Z,5.7
2022-11-06T12:05:58.352Z,5.7
2022-11-06T12:06:58.360Z,5.300000000000001
2022-11-06T12:07:58.361Z,8.3
2022-11-06T12:08:58.353Z,6.800000000000001
2022-11-06T12:09:58.351Z,5.7
2022-11-06T12:10:58.359Z,10.200000000000001
2022-11-06T12:11:58.361Z,10.8
2022-11-06T12:12:58.364Z,7.9
2022-11-06T12:13:58.361Z,8.4
2022-11-06T12:14:58.357Z,12.3
2022-11-06T12:15:58.366Z,7.2
2022-11-06T12:16:58.387Z,6.1000000000000005
2022-11-06T12:17:58.370Z,12.4
2022-11-06T12:18:59.153Z,3.5
2022-11-06T12:19:58.355Z,5.9
2022-11-06T12:20:58.368Z,15.5
2022-11-06T12:21:58.363Z,15.600000000000001
2022-11-06T12:22:58.359Z,11.9
2022-11-06T12:23:58.368Z,11.100000000000001
2022-11-06T12:24:58.370Z,10.200000000000001
2022-11-06T12:25:58.369Z,12
2022-11-06T12:26:58.375Z,13.8
2022-11-06T12:27:58.374Z,11
2022-11-06T12:29:03.814Z,8.9
2022-11-06T12:29:58.378Z,18.3
2022-11-06T12:30:58.386Z,10.3
2022-11-06T12:31:58.378Z,13
2022-11-06T12:32:58.406Z,8.1
2022-11-06T12:34:07.034Z,8.700000000000001
2022-11-06T12:34:58.390Z,14.700000000000001
2022-11-06T12:35:58.381Z,12.100000000000001
2022-11-06T12:36:58.389Z,11.200000000000001
2022-11-06T12:37:58.389Z,7.2
2022-11-06T12:38:58.391Z,11.600000000000001
2022-11-06T12:39:58.395Z,13.600000000000001
2022-11-06T12:40:58.398Z,10.3
2022-11-06T12:41:58.386Z,4.800000000000001
2022-11-06T12:42:58.411Z,9.200000000000001
2022-11-06T12:43:58.407Z,9.4
2022-11-06T12:44:58.389Z,7.6000000000000005
2022-11-06T12:45:58.409Z,19
2022-11-06T12:46:58.396Z,10.9
2022-11-06T12:47:58.408Z,15.5
2022-11-06T12:48:58.424Z,10.8
2022-11-06T12:49:58.404Z,10.9
2022-11-06T12:50:58.411Z,7.9
2022-11-06T12:51:58.404Z,15.200000000000001
2022-11-06T12:53:02.107Z,12.5
2022-11-06T12:53:58.409Z,8.9
2022-11-06T12:54:58.412Z,10.9
2022-11-06T12:55:58.421Z,15.5
2022-11-06T12:56:58.432Z,8.4
2022-11-06T12:57:58.411Z,6.1000000000000005
2022-11-06T12:58:58.411Z,0
2022-11-06T12:59:58.420Z,6.7
2022-11-06T13:00:58.480Z,12.9
2022-11-06T13:01:58.501Z,11.600000000000001
2022-11-06T13:02:58.435Z,12
2022-11-06T13:03:58.420Z,8.5
2022-11-06T13:04:58.438Z,11.200000000000001
2022-11-06T13:05:58.423Z,9
2022-11-06T13:06:58.416Z,13.3
2022-11-06T13:07:58.419Z,12.200000000000001
2022-11-06T13:08:58.455Z,12.100000000000001
2022-11-06T13:09:58.420Z,6.1000000000000005
2022-11-06T13:10:58.425Z,10.8
2022-11-06T13:11:58.429Z,8.700000000000001
2022-11-06T13:12:58.422Z,9.700000000000001
2022-11-06T13:13:58.421Z,10.100000000000001
2022-11-06T13:14:58.425Z,11
2022-11-06T13:15:58.423Z,12.3
2022-11-06T13:16:58.422Z,8.1
2022-11-06T13:17:58.429Z,7.9
2022-11-06T13:18:58.433Z,8.8
2022-11-06T13:19:58.423Z,13.3
2022-11-06T13:20:58.450Z,9
2022-11-06T13:21:58.426Z,10
2022-11-06T13:22:58.439Z,14.5
2022-11-06T13:23:58.420Z,10.100000000000001
2022-11-06T13:24:58.426Z,7.1000000000000005
2022-11-06T13:25:58.427Z,9.600000000000001
2022-11-06T13:26:58.453Z,7.6000000000000005
2022-11-06T13:27:58.425Z,8.200000000000001
2022-11-06T13:28:58.426Z,7.7
2022-11-06T13:29:58.431Z,4.5
2022-11-06T13:30:58.427Z,10.600000000000001
2022-11-06T13:31:58.427Z,6.2
2022-11-06T13:32:58.425Z,2.2
2022-11-06T13:33:58.436Z,4.2
2022-11-06T13:34:58.429Z,8.1
2022-11-06T13:35:58.433Z,12.3
2022-11-06T13:36:58.457Z,4.9
2022-11-06T13:37:58.442Z,10.600000000000001
2022-11-06T13:38:58.434Z,6.6000000000000005
2022-11-06T13:39:58.434Z,7
2022-11-06T13:41:03.259Z,3.3000000000000003
2022-11-06T13:41:58.431Z,1.3
2022-11-06T13:42:58.456Z,0
2022-11-06T13:43:58.443Z,0
2022-11-06T13:44:58.445Z,7.4